sensor_id;sensor_type;location;lat;lon;timestamp;pressure;altitude;pressure_sealevel;temperature;humidity
31096;BME280;17749;51.962;8.560;2023-07-09T05:02:03;100329.66;;;20.04;100.00
31096;BME280;17749;51.962;8.560;2023-07-09T05:04:30;100327.34;;;20.11;100.00
31096;BME280;17749;51.962;8.560;2023-07-09T05:06:57;100325.25;;;20.14;100.00
31096;BME280;17749;51.962;8.560;2023-07-09T05:09:24;100323.81;;;20.22;100.00
31096;BME280;17749;51.962;8.560;2023-07-09T05:11:51;100323.22;;;20.29;100.00
31096;BME280;17749;51.962;8.560;2023-07-09T05:14:18;100328.13;;;20.35;100.00
31096;BME280;17749;51.962;8.560;2023-07-09T05:16:45;100328.53;;;20.42;100.00
31096;BME280;17749;51.962;8.560;2023-07-09T05:19:12;100329.53;;;20.52;100.00
31096;BME280;17749;51.962;8.560;2023-07-09T05:21:39;100328.84;;;20.62;100.00
31096;BME280;17749;51.962;8.560;2023-07-09T05:24:06;100324.31;;;20.73;100.00
31096;BME280;17749;51.962;8.560;2023-07-09T05:26:33;100331.59;;;20.84;100.00
31096;BME280;17749;51.962;8.560;2023-07-09T05:29:01;100328.16;;;20.93;100.00
31096;BME280;17749;51.962;8.560;2023-07-09T05:31:28;100334.69;;;21.02;100.00
31096;BME280;17749;51.962;8.560;2023-07-09T05:33:55;100333.81;;;21.13;100.00
31096;BME280;17749;51.962;8.560;2023-07-09T05:36:22;100334.53;;;21.26;100.00
31096;BME280;17749;51.962;8.560;2023-07-09T05:38:49;100337.88;;;21.41;100.00
31096;BME280;17749;51.962;8.560;2023-07-09T05:41:16;100337.47;;;21.57;100.00
31096;BME280;17749;51.962;8.560;2023-07-09T05:43:43;100337.66;;;21.76;100.00
31096;BME280;17749;51.962;8.560;2023-07-09T05:46:13;100341.16;;;21.99;100.00
31096;BME280;17749;51.962;8.560;2023-07-09T05:48:41;100339.84;;;22.26;100.00
31096;BME280;17749;51.962;8.560;2023-07-09T05:51:07;100341.19;;;22.52;100.00
31096;BME280;17749;51.962;8.560;2023-07-09T05:53:34;100336.19;;;22.79;100.00
31096;BME280;17749;51.962;8.560;2023-07-09T05:56:01;100341.22;;;23.04;100.00
31096;BME280;17749;51.962;8.560;2023-07-09T05:58:29;100344.31;;;23.30;100.00
31096;BME280;17749;51.962;8.560;2023-07-09T06:00:56;100346.28;;;23.59;100.00
31096;BME280;17749;51.962;8.560;2023-07-09T06:03:25;100341.19;;;23.85;100.00
31096;BME280;17749;51.962;8.560;2023-07-09T06:05:53;100342.34;;;24.02;100.00
31096;BME280;17749;51.962;8.560;2023-07-09T06:08:20;100345.22;;;24.20;100.00
31096;BME280;17749;51.962;8.560;2023-07-09T06:10:54;100345.22;;;24.39;100.00
31096;BME280;17749;51.962;8.560;2023-07-09T06:13:22;100347.22;;;24.66;100.00
31096;BME280;17749;51.962;8.560;2023-07-09T06:15:49;100349.72;;;24.97;100.00
31096;BME280;17749;51.962;8.560;2023-07-09T06:18:17;100351.03;;;25.30;100.00
31096;BME280;17749;51.962;8.560;2023-07-09T06:20:47;100344.56;;;25.59;100.00
31096;BME280;17749;51.962;8.560;2023-07-09T06:23:14;100346.88;;;25.82;100.00
31096;BME280;17749;51.962;8.560;2023-07-09T06:25:42;100345.44;;;26.05;100.00
31096;BME280;17749;51.962;8.560;2023-07-09T06:28:09;100351.81;;;26.32;100.00
31096;BME280;17749;51.962;8.560;2023-07-09T06:30:36;100349.47;;;26.55;100.00
31096;BME280;17749;51.962;8.560;2023-07-09T06:33:03;100360.56;;;26.79;100.00
31096;BME280;17749;51.962;8.560;2023-07-09T06:35:30;100360.59;;;27.14;100.00
31096;BME280;17749;51.962;8.560;2023-07-09T06:37:57;100353.56;;;27.37;98.94
31096;BME280;17749;51.962;8.560;2023-07-09T06:40:24;100350.25;;;27.68;96.32
31096;BME280;17749;51.962;8.560;2023-07-09T06:42:51;100354.97;;;28.00;94.36
31096;BME280;17749;51.962;8.560;2023-07-09T06:45:25;100355.88;;;28.33;94.29
31096;BME280;17749;51.962;8.560;2023-07-09T06:47:52;100352.47;;;28.64;94.13
31096;BME280;17749;51.962;8.560;2023-07-09T06:50:19;100358.25;;;28.94;91.33
31096;BME280;17749;51.962;8.560;2023-07-09T06:52:46;100351.38;;;29.14;88.72
31096;BME280;17749;51.962;8.560;2023-07-09T06:55:13;100352.69;;;29.26;87.15
31096;BME280;17749;51.962;8.560;2023-07-09T06:57:40;100356.03;;;29.53;90.80
31096;BME280;17749;51.962;8.560;2023-07-09T07:00:07;100351.78;;;29.82;89.27
31096;BME280;17749;51.962;8.560;2023-07-09T07:02:34;100356.94;;;30.08;89.18
31096;BME280;17749;51.962;8.560;2023-07-09T07:05:01;100358.84;;;30.30;88.35
31096;BME280;17749;51.962;8.560;2023-07-09T07:07:28;100356.84;;;30.47;86.67
31096;BME280;17749;51.962;8.560;2023-07-09T07:09:55;100361.03;;;30.73;86.84
31096;BME280;17749;51.962;8.560;2023-07-09T07:12:23;100360.63;;;30.99;84.69
31096;BME280;17749;51.962;8.560;2023-07-09T07:14:51;100356.00;;;31.29;82.57
31096;BME280;17749;51.962;8.560;2023-07-09T07:17:18;100367.69;;;31.46;82.33
31096;BME280;17749;51.962;8.560;2023-07-09T07:19:45;100366.44;;;31.49;81.39
31096;BME280;17749;51.962;8.560;2023-07-09T07:22:11;100366.13;;;31.73;80.92
31096;BME280;17749;51.962;8.560;2023-07-09T07:24:38;100354.66;;;31.91;80.69
31096;BME280;17749;51.962;8.560;2023-07-09T07:27:05;100356.69;;;32.19;79.81
31096;BME280;17749;51.962;8.560;2023-07-09T07:29:32;100350.88;;;32.28;76.70
31096;BME280;17749;51.962;8.560;2023-07-09T07:31:59;100359.66;;;32.39;76.16
31096;BME280;17749;51.962;8.560;2023-07-09T07:34:27;100354.28;;;32.52;74.85
31096;BME280;17749;51.962;8.560;2023-07-09T07:36:54;100365.94;;;32.76;76.05
31096;BME280;17749;51.962;8.560;2023-07-09T07:39:21;100361.31;;;33.04;75.00
31096;BME280;17749;51.962;8.560;2023-07-09T07:41:48;100365.22;;;33.23;74.78
31096;BME280;17749;51.962;8.560;2023-07-09T07:44:17;100359.97;;;33.35;74.65
31096;BME280;17749;51.962;8.560;2023-07-09T07:46:44;100372.22;;;33.60;75.91
31096;BME280;17749;51.962;8.560;2023-07-09T07:49:11;100364.28;;;33.92;75.17
31096;BME280;17749;51.962;8.560;2023-07-09T07:51:38;100361.78;;;34.11;74.09
31096;BME280;17749;51.962;8.560;2023-07-09T07:54:05;100363.84;;;33.95;72.50
31096;BME280;17749;51.962;8.560;2023-07-09T07:56:33;100359.97;;;33.70;69.74
31096;BME280;17749;51.962;8.560;2023-07-09T07:59:00;100356.19;;;33.84;70.13
31096;BME280;17749;51.962;8.560;2023-07-09T08:01:27;100353.66;;;33.89;70.23
31096;BME280;17749;51.962;8.560;2023-07-09T08:03:54;100350.72;;;34.04;69.87
31096;BME280;17749;51.962;8.560;2023-07-09T08:06:21;100351.63;;;34.31;70.96
31096;BME280;17749;51.962;8.560;2023-07-09T08:08:48;100342.69;;;34.56;71.00
31096;BME280;17749;51.962;8.560;2023-07-09T08:11:15;100349.09;;;34.83;70.45
31096;BME280;17749;51.962;8.560;2023-07-09T08:13:42;100343.13;;;34.99;70.22
31096;BME280;17749;51.962;8.560;2023-07-09T08:16:10;100343.91;;;35.26;68.35
31096;BME280;17749;51.962;8.560;2023-07-09T08:18:38;100339.59;;;35.44;68.76
31096;BME280;17749;51.962;8.560;2023-07-09T08:21:05;100335.75;;;35.58;69.47
31096;BME280;17749;51.962;8.560;2023-07-09T08:23:32;100340.97;;;35.80;67.37
31096;BME280;17749;51.962;8.560;2023-07-09T08:26:00;100332.97;;;35.96;67.45
31096;BME280;17749;51.962;8.560;2023-07-09T08:28:30;100330.38;;;36.08;67.87
31096;BME280;17749;51.962;8.560;2023-07-09T08:30:57;100333.69;;;36.24;67.48
31096;BME280;17749;51.962;8.560;2023-07-09T08:33:24;100330.69;;;36.50;66.23
31096;BME280;17749;51.962;8.560;2023-07-09T08:35:52;100335.50;;;36.68;66.57
31096;BME280;17749;51.962;8.560;2023-07-09T08:38:19;100341.16;;;36.48;65.02
31096;BME280;17749;51.962;8.560;2023-07-09T08:40:57;100338.56;;;36.53;65.23
31096;BME280;17749;51.962;8.560;2023-07-09T08:43:31;100331.00;;;36.42;61.55
31096;BME280;17749;51.962;8.560;2023-07-09T08:46:07;100338.97;;;36.32;63.29
31096;BME280;17749;51.962;8.560;2023-07-09T08:48:37;100337.56;;;36.48;64.19
31096;BME280;17749;51.962;8.560;2023-07-09T08:51:13;100335.38;;;36.56;64.56
31096;BME280;17749;51.962;8.560;2023-07-09T08:53:44;100336.03;;;36.77;63.51
31096;BME280;17749;51.962;8.560;2023-07-09T08:56:13;100341.16;;;36.98;64.21
31096;BME280;17749;51.962;8.560;2023-07-09T08:58:41;100335.22;;;36.95;62.87
31096;BME280;17749;51.962;8.560;2023-07-09T09:01:23;100331.50;;;37.01;62.06
31096;BME280;17749;51.962;8.560;2023-07-09T09:03:52;100345.81;;;37.41;62.63
31096;BME280;17749;51.962;8.560;2023-07-09T09:06:21;100338.56;;;37.40;61.76
31096;BME280;17749;51.962;8.560;2023-07-09T09:11:42;100344.75;;;37.24;60.92
31096;BME280;17749;51.962;8.560;2023-07-09T09:14:33;100342.03;;;37.54;61.46
31096;BME280;17749;51.962;8.560;2023-07-09T09:16:58;100343.63;;;37.80;62.35
31096;BME280;17749;51.962;8.560;2023-07-09T09:19:48;100334.19;;;38.00;61.59
31096;BME280;17749;51.962;8.560;2023-07-09T09:22:13;100331.19;;;37.83;59.84
31096;BME280;17749;51.962;8.560;2023-07-09T09:27:27;100329.84;;;37.74;59.67
31096;BME280;17749;51.962;8.560;2023-07-09T09:29:54;100329.50;;;37.82;60.33
31096;BME280;17749;51.962;8.560;2023-07-09T09:32:22;100324.66;;;37.77;60.66
31096;BME280;17749;51.962;8.560;2023-07-09T09:34:51;100330.59;;;37.62;60.82
31096;BME280;17749;51.962;8.560;2023-07-09T09:37:29;100330.84;;;37.42;60.60
31096;BME280;17749;51.962;8.560;2023-07-09T09:39:58;100331.94;;;37.23;61.69
31096;BME280;17749;51.962;8.560;2023-07-09T09:42:42;100332.88;;;37.54;62.42
31096;BME280;17749;51.962;8.560;2023-07-09T09:45:14;100326.63;;;37.58;63.37
31096;BME280;17749;51.962;8.560;2023-07-09T09:47:42;100325.19;;;37.49;63.46
31096;BME280;17749;51.962;8.560;2023-07-09T09:50:13;100329.47;;;37.52;62.20
31096;BME280;17749;51.962;8.560;2023-07-09T09:52:40;100341.50;;;37.27;63.04
31096;BME280;17749;51.962;8.560;2023-07-09T09:55:11;100333.66;;;37.24;63.36
31096;BME280;17749;51.962;8.560;2023-07-09T09:57:38;100339.66;;;37.21;63.62
31096;BME280;17749;51.962;8.560;2023-07-09T10:00:05;100326.38;;;37.23;63.07
31096;BME280;17749;51.962;8.560;2023-07-09T10:02:38;100329.56;;;37.26;62.50
31096;BME280;17749;51.962;8.560;2023-07-09T10:05:11;100331.34;;;37.21;63.33
31096;BME280;17749;51.962;8.560;2023-07-09T10:07:59;100333.53;;;37.31;62.88
31096;BME280;17749;51.962;8.560;2023-07-09T10:10:28;100330.91;;;37.36;62.00
31096;BME280;17749;51.962;8.560;2023-07-09T10:12:59;100332.06;;;37.65;62.15
31096;BME280;17749;51.962;8.560;2023-07-09T10:15:40;100333.09;;;37.70;61.52
31096;BME280;17749;51.962;8.560;2023-07-09T10:20:47;100333.47;;;37.74;61.99
31096;BME280;17749;51.962;8.560;2023-07-09T10:31:07;100328.03;;;37.98;62.02
31096;BME280;17749;51.962;8.560;2023-07-09T10:36:16;100323.38;;;37.91;61.79
31096;BME280;17749;51.962;8.560;2023-07-09T10:38:50;100334.69;;;37.97;62.12
31096;BME280;17749;51.962;8.560;2023-07-09T10:41:21;100324.75;;;38.01;62.52
31096;BME280;17749;51.962;8.560;2023-07-09T10:44:00;100327.13;;;38.15;62.41
31096;BME280;17749;51.962;8.560;2023-07-09T10:46:31;100318.25;;;38.07;61.50
31096;BME280;17749;51.962;8.560;2023-07-09T10:49:00;100333.94;;;38.01;61.55
31096;BME280;17749;51.962;8.560;2023-07-09T10:51:33;100331.09;;;37.89;62.16
31096;BME280;17749;51.962;8.560;2023-07-09T10:54:21;100321.50;;;38.04;62.59
31096;BME280;17749;51.962;8.560;2023-07-09T10:56:53;100320.78;;;37.97;62.05
31096;BME280;17749;51.962;8.560;2023-07-09T10:59:27;100325.59;;;38.01;63.46
31096;BME280;17749;51.962;8.560;2023-07-09T11:01:57;100320.97;;;37.65;61.65
31096;BME280;17749;51.962;8.560;2023-07-09T11:06:59;100322.19;;;38.29;61.69
31096;BME280;17749;51.962;8.560;2023-07-09T11:09:31;100317.72;;;38.40;61.94
31096;BME280;17749;51.962;8.560;2023-07-09T11:12:02;100313.06;;;38.10;61.90
31096;BME280;17749;51.962;8.560;2023-07-09T11:14:39;100307.16;;;38.30;61.97
31096;BME280;17749;51.962;8.560;2023-07-09T11:17:14;100310.41;;;38.57;60.48
31096;BME280;17749;51.962;8.560;2023-07-09T11:19:45;100311.34;;;38.63;59.91
31096;BME280;17749;51.962;8.560;2023-07-09T11:22:19;100309.56;;;38.80;59.61
31096;BME280;17749;51.962;8.560;2023-07-09T11:24:48;100314.03;;;38.58;60.50
31096;BME280;17749;51.962;8.560;2023-07-09T11:27:21;100304.31;;;38.72;58.38
31096;BME280;17749;51.962;8.560;2023-07-09T11:29:51;100302.53;;;38.66;59.18
31096;BME280;17749;51.962;8.560;2023-07-09T11:32:22;100303.25;;;38.73;59.58
31096;BME280;17749;51.962;8.560;2023-07-09T11:34:49;100298.31;;;38.75;59.36
31096;BME280;17749;51.962;8.560;2023-07-09T11:37:16;100294.03;;;38.85;58.83
31096;BME280;17749;51.962;8.560;2023-07-09T11:39:44;100299.00;;;38.83;58.35
31096;BME280;17749;51.962;8.560;2023-07-09T11:47:34;100289.81;;;39.58;58.84
31096;BME280;17749;51.962;8.560;2023-07-09T11:50:04;100290.75;;;39.63;58.30
31096;BME280;17749;51.962;8.560;2023-07-09T11:57:55;100294.44;;;38.65;56.96
31096;BME280;17749;51.962;8.560;2023-07-09T12:00:22;100296.94;;;38.43;54.89
31096;BME280;17749;51.962;8.560;2023-07-09T12:02:49;100299.75;;;38.66;56.97
31096;BME280;17749;51.962;8.560;2023-07-09T12:05:21;100295.88;;;39.03;55.95
31096;BME280;17749;51.962;8.560;2023-07-09T12:07:48;100288.13;;;38.81;54.92
31096;BME280;17749;51.962;8.560;2023-07-09T12:10:19;100282.41;;;38.88;55.91
31096;BME280;17749;51.962;8.560;2023-07-09T12:12:47;100279.00;;;39.09;56.13
31096;BME280;17749;51.962;8.560;2023-07-09T12:15:21;100283.00;;;39.13;53.79
31096;BME280;17749;51.962;8.560;2023-07-09T12:17:55;100265.31;;;39.19;53.33
31096;BME280;17749;51.962;8.560;2023-07-09T12:20:22;100265.66;;;39.35;53.62
31096;BME280;17749;51.962;8.560;2023-07-09T12:22:49;100255.22;;;39.42;54.80
31096;BME280;17749;51.962;8.560;2023-07-09T12:25:21;100260.84;;;39.18;54.62
31096;BME280;17749;51.962;8.560;2023-07-09T12:27:48;100258.16;;;39.23;55.49
31096;BME280;17749;51.962;8.560;2023-07-09T12:30:15;100247.09;;;39.40;54.21
31096;BME280;17749;51.962;8.560;2023-07-09T12:32:43;100245.81;;;39.60;54.58
31096;BME280;17749;51.962;8.560;2023-07-09T12:35:12;100240.06;;;39.95;53.39
31096;BME280;17749;51.962;8.560;2023-07-09T12:37:39;100234.44;;;40.24;52.67
31096;BME280;17749;51.962;8.560;2023-07-09T12:40:11;100231.56;;;40.36;52.56
31096;BME280;17749;51.962;8.560;2023-07-09T12:42:38;100235.59;;;39.94;52.76
31096;BME280;17749;51.962;8.560;2023-07-09T12:45:08;100225.47;;;39.88;52.48
31096;BME280;17749;51.962;8.560;2023-07-09T12:47:40;100224.38;;;39.60;52.91
31096;BME280;17749;51.962;8.560;2023-07-09T12:50:16;100214.34;;;39.59;53.36
31096;BME280;17749;51.962;8.560;2023-07-09T12:52:47;100209.50;;;39.72;51.75
31096;BME280;17749;51.962;8.560;2023-07-09T12:55:24;100206.75;;;39.43;50.88
31096;BME280;17749;51.962;8.560;2023-07-09T12:57:55;100204.84;;;39.32;51.73
31096;BME280;17749;51.962;8.560;2023-07-09T13:00:25;100187.22;;;39.14;51.59
31096;BME280;17749;51.962;8.560;2023-07-09T13:02:53;100191.56;;;39.34;52.19
31096;BME280;17749;51.962;8.560;2023-07-09T13:05:23;100185.56;;;39.13;52.33
31096;BME280;17749;51.962;8.560;2023-07-09T13:07:51;100190.81;;;38.98;52.56
31096;BME280;17749;51.962;8.560;2023-07-09T13:10:21;100189.75;;;38.99;52.86
31096;BME280;17749;51.962;8.560;2023-07-09T13:12:51;100192.88;;;38.91;53.86
31096;BME280;17749;51.962;8.560;2023-07-09T13:15:19;100188.66;;;38.88;54.18
31096;BME280;17749;51.962;8.560;2023-07-09T13:17:46;100190.09;;;38.91;54.26
31096;BME280;17749;51.962;8.560;2023-07-09T13:20:12;100185.00;;;38.99;53.05
31096;BME280;17749;51.962;8.560;2023-07-09T13:22:39;100178.97;;;39.19;53.50
31096;BME280;17749;51.962;8.560;2023-07-09T13:25:07;100184.34;;;39.09;52.41
31096;BME280;17749;51.962;8.560;2023-07-09T13:27:34;100185.56;;;39.13;52.58
31096;BME280;17749;51.962;8.560;2023-07-09T13:30:01;100181.28;;;38.94;53.36
31096;BME280;17749;51.962;8.560;2023-07-09T13:32:28;100181.38;;;38.87;53.60
31096;BME280;17749;51.962;8.560;2023-07-09T13:34:55;100185.63;;;38.90;54.29
31096;BME280;17749;51.962;8.560;2023-07-09T13:37:22;100183.72;;;38.78;54.21
31096;BME280;17749;51.962;8.560;2023-07-09T13:39:49;100182.09;;;38.83;53.79
31096;BME280;17749;51.962;8.560;2023-07-09T13:42:16;100185.16;;;38.69;53.07
31096;BME280;17749;51.962;8.560;2023-07-09T13:44:44;100180.13;;;38.31;51.83
31096;BME280;17749;51.962;8.560;2023-07-09T13:47:13;100181.69;;;38.39;53.85
31096;BME280;17749;51.962;8.560;2023-07-09T13:49:42;100169.94;;;38.60;53.57
31096;BME280;17749;51.962;8.560;2023-07-09T13:52:13;100176.34;;;38.49;53.03
31096;BME280;17749;51.962;8.560;2023-07-09T13:54:41;100169.00;;;38.31;53.14
31096;BME280;17749;51.962;8.560;2023-07-09T13:57:12;100172.03;;;38.18;53.86
31096;BME280;17749;51.962;8.560;2023-07-09T13:59:39;100173.09;;;38.28;53.82
31096;BME280;17749;51.962;8.560;2023-07-09T14:02:20;100172.13;;;38.34;54.55
31096;BME280;17749;51.962;8.560;2023-07-09T14:04:50;100177.47;;;38.48;54.06
31096;BME280;17749;51.962;8.560;2023-07-09T14:07:25;100170.56;;;38.15;54.17
31096;BME280;17749;51.962;8.560;2023-07-09T14:09:52;100160.41;;;38.09;54.34
31096;BME280;17749;51.962;8.560;2023-07-09T14:12:19;100166.66;;;38.28;54.82
31096;BME280;17749;51.962;8.560;2023-07-09T14:14:46;100166.56;;;38.11;53.76
31096;BME280;17749;51.962;8.560;2023-07-09T14:17:13;100164.16;;;38.03;54.53
31096;BME280;17749;51.962;8.560;2023-07-09T14:19:40;100157.13;;;38.00;52.69
31096;BME280;17749;51.962;8.560;2023-07-09T14:22:42;100149.63;;;38.01;54.46
31096;BME280;17749;51.962;8.560;2023-07-09T14:25:02;100157.81;;;37.96;55.39
31096;BME280;17749;51.962;8.560;2023-07-09T14:27:29;100156.53;;;37.98;55.19
31096;BME280;17749;51.962;8.560;2023-07-09T14:29:56;100152.91;;;38.09;55.82
31096;BME280;17749;51.962;8.560;2023-07-09T14:32:30;100142.66;;;38.10;55.20
31096;BME280;17749;51.962;8.560;2023-07-09T14:34:58;100137.41;;;38.02;55.10
31096;BME280;17749;51.962;8.560;2023-07-09T14:37:24;100127.03;;;38.21;55.45
31096;BME280;17749;51.962;8.560;2023-07-09T14:39:53;100128.50;;;38.23;54.74
31096;BME280;17749;51.962;8.560;2023-07-09T14:42:20;100127.66;;;38.11;55.09
31096;BME280;17749;51.962;8.560;2023-07-09T14:44:48;100113.59;;;37.82;54.49
31096;BME280;17749;51.962;8.560;2023-07-09T14:47:16;100112.16;;;37.91;55.61
31096;BME280;17749;51.962;8.560;2023-07-09T14:49:44;100097.75;;;37.71;54.28
31096;BME280;17749;51.962;8.560;2023-07-09T14:52:14;100097.91;;;37.76;55.88
31096;BME280;17749;51.962;8.560;2023-07-09T14:54:44;100091.59;;;37.92;55.76
31096;BME280;17749;51.962;8.560;2023-07-09T14:57:16;100091.63;;;38.16;55.34
31096;BME280;17749;51.962;8.560;2023-07-09T14:59:45;100086.41;;;38.31;54.83
31096;BME280;17749;51.962;8.560;2023-07-09T15:02:21;100086.81;;;38.00;54.56
31096;BME280;17749;51.962;8.560;2023-07-09T15:04:49;100098.03;;;38.05;55.55
31096;BME280;17749;51.962;8.560;2023-07-09T15:07:16;100099.13;;;38.15;56.96
31096;BME280;17749;51.962;8.560;2023-07-09T15:09:43;100101.28;;;38.02;58.06
31096;BME280;17749;51.962;8.560;2023-07-09T15:12:18;100108.06;;;38.06;58.10
31096;BME280;17749;51.962;8.560;2023-07-09T15:14:46;100099.34;;;38.14;56.97
31096;BME280;17749;51.962;8.560;2023-07-09T15:17:13;100090.13;;;38.25;57.51
31096;BME280;17749;51.962;8.560;2023-07-09T15:19:39;100085.56;;;38.19;57.68
31096;BME280;17749;51.962;8.560;2023-07-09T15:22:11;100095.28;;;38.05;57.06
31096;BME280;17749;51.962;8.560;2023-07-09T15:24:43;100091.47;;;37.87;59.01
31096;BME280;17749;51.962;8.560;2023-07-09T15:27:10;100093.66;;;37.74;59.22
31096;BME280;17749;51.962;8.560;2023-07-09T15:29:37;100091.09;;;37.72;58.77
31096;BME280;17749;51.962;8.560;2023-07-09T15:32:03;100091.81;;;37.56;58.47
31096;BME280;17749;51.962;8.560;2023-07-09T15:34:30;100090.25;;;37.60;58.98
31096;BME280;17749;51.962;8.560;2023-07-09T15:36:57;100086.13;;;37.50;58.21
31096;BME280;17749;51.962;8.560;2023-07-09T15:39:24;100093.91;;;37.30;60.10
31096;BME280;17749;51.962;8.560;2023-07-09T15:41:52;100086.59;;;37.05;58.99
31096;BME280;17749;51.962;8.560;2023-07-09T15:44:19;100091.84;;;36.95;61.26
31096;BME280;17749;51.962;8.560;2023-07-09T15:46:51;100098.66;;;36.81;61.19
31096;BME280;17749;51.962;8.560;2023-07-09T15:49:18;100107.13;;;36.68;60.66
31096;BME280;17749;51.962;8.560;2023-07-09T15:51:45;100099.28;;;36.46;59.01
31096;BME280;17749;51.962;8.560;2023-07-09T15:54:16;100101.50;;;36.19;60.13
31096;BME280;17749;51.962;8.560;2023-07-09T15:56:43;100092.25;;;36.07;61.57
31096;BME280;17749;51.962;8.560;2023-07-09T15:59:16;100091.34;;;35.88;61.61
31096;BME280;17749;51.962;8.560;2023-07-09T16:01:50;100098.38;;;35.65;62.37
31096;BME280;17749;51.962;8.560;2023-07-09T16:04:17;100101.88;;;35.47;62.23
31096;BME280;17749;51.962;8.560;2023-07-09T16:06:44;100085.44;;;35.27;63.53
31096;BME280;17749;51.962;8.560;2023-07-09T16:09:12;100099.19;;;35.02;64.50
31096;BME280;17749;51.962;8.560;2023-07-09T16:11:43;100106.09;;;34.86;66.46
31096;BME280;17749;51.962;8.560;2023-07-09T16:14:20;100107.03;;;34.67;66.93
31096;BME280;17749;51.962;8.560;2023-07-09T16:16:53;100107.91;;;34.47;67.66
31096;BME280;17749;51.962;8.560;2023-07-09T16:19:25;100115.63;;;34.32;69.58
31096;BME280;17749;51.962;8.560;2023-07-09T16:21:59;100108.44;;;34.11;69.96
31096;BME280;17749;51.962;8.560;2023-07-09T16:24:30;100102.28;;;33.89;71.66
31096;BME280;17749;51.962;8.560;2023-07-09T16:26:58;100107.19;;;33.74;72.53
31096;BME280;17749;51.962;8.560;2023-07-09T16:29:26;100103.78;;;33.58;72.95
31096;BME280;17749;51.962;8.560;2023-07-09T16:31:54;100099.28;;;33.44;75.29
31096;BME280;17749;51.962;8.560;2023-07-09T16:34:22;100096.31;;;33.26;76.82
31096;BME280;17749;51.962;8.560;2023-07-09T16:36:49;100097.75;;;33.08;76.67
31096;BME280;17749;51.962;8.560;2023-07-09T16:39:23;100100.66;;;32.93;77.35
31096;BME280;17749;51.962;8.560;2023-07-09T16:41:52;100097.22;;;32.85;78.80
31096;BME280;17749;51.962;8.560;2023-07-09T16:44:19;100088.94;;;32.78;80.45
31096;BME280;17749;51.962;8.560;2023-07-09T16:46:47;100079.38;;;32.67;82.10
31096;BME280;17749;51.962;8.560;2023-07-09T16:51:50;100074.34;;;32.43;84.87
31096;BME280;17749;51.962;8.560;2023-07-09T16:54:17;100089.78;;;32.30;86.23
31096;BME280;17749;51.962;8.560;2023-07-09T16:56:44;100162.34;;;32.16;86.90
31096;BME280;17749;51.962;8.560;2023-07-09T16:59:11;100165.06;;;31.60;83.76
31096;BME280;17749;51.962;8.560;2023-07-09T17:01:38;100170.72;;;31.00;84.08
31096;BME280;17749;51.962;8.560;2023-07-09T17:04:22;100186.84;;;30.44;85.73
31096;BME280;17749;51.962;8.560;2023-07-09T17:06:50;100205.13;;;29.99;89.19
31096;BME280;17749;51.962;8.560;2023-07-09T17:09:17;100188.00;;;29.51;92.19
31096;BME280;17749;51.962;8.560;2023-07-09T17:11:46;100202.78;;;29.19;100.00
31096;BME280;17749;51.962;8.560;2023-07-09T17:14:14;100233.66;;;28.57;100.00
31096;BME280;17749;51.962;8.560;2023-07-09T17:16:41;100227.53;;;28.06;100.00
31096;BME280;17749;51.962;8.560;2023-07-09T17:19:09;100263.41;;;27.70;100.00
31096;BME280;17749;51.962;8.560;2023-07-09T17:21:37;100292.22;;;27.40;100.00
31096;BME280;17749;51.962;8.560;2023-07-09T17:24:08;100315.13;;;27.04;100.00
31096;BME280;17749;51.962;8.560;2023-07-09T17:26:42;100312.28;;;26.88;100.00
31096;BME280;17749;51.962;8.560;2023-07-09T17:29:09;100304.75;;;26.82;100.00
31096;BME280;17749;51.962;8.560;2023-07-09T17:31:38;100265.13;;;26.78;100.00
31096;BME280;17749;51.962;8.560;2023-07-09T17:34:05;100257.03;;;26.68;100.00
31096;BME280;17749;51.962;8.560;2023-07-09T17:36:32;100296.28;;;26.41;100.00
31096;BME280;17749;51.962;8.560;2023-07-09T17:38:59;100324.75;;;26.02;100.00
31096;BME280;17749;51.962;8.560;2023-07-09T17:41:26;100328.50;;;25.56;100.00
31096;BME280;17749;51.962;8.560;2023-07-09T17:43:53;100325.34;;;25.33;100.00
31096;BME280;17749;51.962;8.560;2023-07-09T17:46:19;100324.38;;;25.24;100.00
31096;BME280;17749;51.962;8.560;2023-07-09T17:48:46;100294.00;;;25.09;100.00
31096;BME280;17749;51.962;8.560;2023-07-09T17:51:13;100308.69;;;24.99;100.00
31096;BME280;17749;51.962;8.560;2023-07-09T17:53:40;100317.03;;;24.87;100.00
31096;BME280;17749;51.962;8.560;2023-07-09T17:56:25;100338.75;;;24.69;100.00
31096;BME280;17749;51.962;8.560;2023-07-09T17:58:56;100388.78;;;24.59;100.00
31096;BME280;17749;51.962;8.560;2023-07-09T18:01:23;100455.22;;;24.27;100.00
31096;BME280;17749;51.962;8.560;2023-07-09T18:03:50;100502.72;;;23.73;100.00
31096;BME280;17749;51.962;8.560;2023-07-09T18:06:17;100502.97;;;23.39;100.00
31096;BME280;17749;51.962;8.560;2023-07-09T18:08:44;100498.69;;;23.15;100.00
31096;BME280;17749;51.962;8.560;2023-07-09T18:11:17;100523.66;;;23.09;100.00
31096;BME280;17749;51.962;8.560;2023-07-09T18:13:47;100536.94;;;22.91;100.00
31096;BME280;17749;51.962;8.560;2023-07-09T18:16:14;100545.47;;;22.87;100.00
31096;BME280;17749;51.962;8.560;2023-07-09T18:18:41;100521.22;;;22.95;100.00
31096;BME280;17749;51.962;8.560;2023-07-09T18:21:10;100516.75;;;23.05;100.00
31096;BME280;17749;51.962;8.560;2023-07-09T18:23:38;100495.91;;;23.06;100.00
31096;BME280;17749;51.962;8.560;2023-07-09T18:26:05;100470.47;;;23.07;100.00
31096;BME280;17749;51.962;8.560;2023-07-09T18:28:34;100453.91;;;23.10;100.00
31096;BME280;17749;51.962;8.560;2023-07-09T18:31:01;100446.34;;;23.13;100.00
31096;BME280;17749;51.962;8.560;2023-07-09T18:33:31;100440.38;;;23.19;100.00